Time;durP1;ratioP1;P1;durP2;ratioP2;P2;SDS_P1;SDS_P2;PMS_P1;PMS_P2;Temp;Humidity;BMP_temperature;BMP_pressure;BME280_temperature;BME280_humidity;BME280_pressure;Samples;Min_cycle;Max_cycle;Signal;HPM_P1;HPM_P2
2022/11/07 00:00:56;;;;;;;;;;;;;;;;;;;;;
2022/11/07 00:03:50;;;;;;;9.48;3.78;;;9.90;99.90;;;;;;5005598;28;20050;-89
2022/11/07 00:06:45;;;;;;;5.07;3.95;;;10.40;99.90;;;;;;4995061;28;20280;-89
2022/11/07 00:09:51;;;;;;;7.18;3.75;;;10.40;99.90;;;;;;4987789;28;20047;-90
2022/11/07 00:13:16;;;;;;;;;;;;;;;;;;;;;
2022/11/07 00:16:32;;;;;;;;;;;;;;;;;;;;;
2022/11/07 00:19:48;;;;;;;12.13;3.45;;;11.20;99.90;;;;;;5004090;28;20572;-88
2022/11/07 00:23:18;;;;;;;;;;;;;;;;;;;;;
2022/11/07 00:26:32;;;;;;;6.32;3.88;;;10.40;99.90;;;;;;5053104;28;20057;-90
2022/11/07 00:29:39;;;;;;;8.60;3.47;;;10.50;99.90;;;;;;5071211;28;20068;-90
2022/11/07 00:32:32;;;;;;;10.82;3.83;;;10.60;99.90;;;;;;5072581;28;20040;-90
2022/11/07 00:35:44;;;;;;;;;;;;;;;;;;;;;
2022/11/07 00:38:40;;;;;;;7.90;3.25;;;10.50;99.90;;;;;;5047445;28;20059;-89
2022/11/07 00:41:45;;;;;;;4.72;3.40;;;10.60;99.90;;;;;;5064970;28;20048;-89
2022/11/07 00:45:20;;;;;;;7.78;3.40;;;10.60;99.90;;;;;;5067438;28;20044;-88
2022/11/07 00:48:40;;;;;;;;;;;;;;;;;;;;;
2022/11/07 00:51:52;;;;;;;;;;;;;;;;;;;;;
2022/11/07 00:55:08;;;;;;;;;;;;;;;;;;;;;
2022/11/07 00:58:24;;;;;;;;;;;;;;;;;;;;;
2022/11/07 01:01:57;;;;;;;;;;;;;;;;;;;;;
2022/11/07 01:08:26;;;;;;;10.85;3.10;;;10.70;99.90;;;;;;5068018;28;20518;-89
2022/11/07 01:11:53;;;;;;;5.78;2.72;;;11.50;99.90;;;;;;5071856;28;20051;-89
2022/11/07 01:15:02;;;;;;;7.68;3.15;;;10.70;99.90;;;;;;5058453;28;20054;-87
2022/11/07 01:17:55;;;;;;;4.78;2.90;;;10.80;99.90;;;;;;5068304;28;20047;-89
2022/11/07 01:20:25;;;;;;;11.55;2.95;;;10.80;99.90;;;;;;5040756;28;20102;-90
2022/11/07 01:22:58;;;;;;;10.15;3.03;;;10.80;99.90;;;;;;5051596;28;20080;-88
2022/11/07 01:25:25;;;;;;;7.20;2.95;;;10.90;99.90;;;;;;5064618;28;20045;-88
2022/11/07 01:27:58;;;;;;;4.60;2.72;;;10.80;99.90;;;;;;5072167;28;20044;-88
2022/11/07 01:30:25;;;;;;;7.38;2.92;;;10.80;99.90;;;;;;5072840;28;20040;-90
2022/11/07 01:33:03;;;;;;;10.65;2.88;;;10.80;99.90;;;;;;5055629;28;20052;-90
2022/11/07 01:35:31;;;;;;;10.55;3.42;;;10.80;99.90;;;;;;5046700;28;20046;-91
2022/11/07 01:37:59;;;;;;;6.88;2.58;;;10.80;99.90;;;;;;5054845;28;20076;-89
2022/11/07 01:40:29;;;;;;;7.38;2.88;;;10.80;99.90;;;;;;5067958;28;20441;-90
2022/11/07 01:43:01;;;;;;;5.32;2.30;;;10.80;99.90;;;;;;5058499;28;20123;-88
2022/11/07 01:45:29;;;;;;;5.75;2.33;;;10.80;99.90;;;;;;5054416;28;20112;-89
2022/11/07 01:47:59;;;;;;;6.20;2.95;;;10.60;99.90;;;;;;5072601;28;20079;-89
2022/11/07 01:50:26;;;;;;;7.60;2.85;;;10.90;99.90;;;;;;5074629;28;20506;-90
2022/11/07 01:52:55;;;;;;;5.03;2.90;;;10.90;99.90;;;;;;5075995;28;20041;-90
2022/11/07 01:55:31;;;;;;;8.90;2.88;;;10.90;99.90;;;;;;5056832;28;20045;-89
2022/11/07 01:58:06;;;;;;;9.23;2.67;;;11.00;99.90;;;;;;5056944;28;20559;-90
2022/11/07 02:00:34;;;;;;;5.93;2.80;;;10.80;99.90;;;;;;5075840;28;20058;-89
2022/11/07 02:03:11;;;;;;;7.53;2.90;;;10.80;99.90;;;;;;5053663;28;20043;-91
2022/11/07 02:05:43;;;;;;;4.70;2.55;;;10.80;99.90;;;;;;5054576;28;20068;-89
2022/11/07 02:08:12;;;;;;;9.15;2.60;;;10.80;99.90;;;;;;5054579;28;20049;-90
2022/11/07 02:10:41;;;;;;;7.97;2.97;;;10.80;99.90;;;;;;5045864;28;20083;-89
2022/11/07 02:13:07;;;;;;;6.15;2.33;;;10.80;99.90;;;;;;5054660;28;20081;-91
2022/11/07 02:15:35;;;;;;;6.00;2.08;;;10.80;99.90;;;;;;5057048;28;20131;-90
2022/11/07 02:18:02;;;;;;;5.45;2.53;;;10.90;99.90;;;;;;5073258;28;20617;-89
2022/11/07 02:20:28;;;;;;;7.38;2.80;;;10.80;99.90;;;;;;5056970;28;20048;-90
2022/11/07 02:22:58;;;;;;;10.98;3.25;;;10.90;99.90;;;;;;5057380;28;20055;-90
2022/11/07 02:25:30;;;;;;;10.13;2.78;;;10.90;99.90;;;;;;5074431;28;20463;-90
2022/11/07 02:28:07;;;;;;;8.85;3.03;;;10.90;99.90;;;;;;5073588;28;20506;-89
2022/11/07 02:30:33;;;;;;;7.47;2.75;;;11.00;99.90;;;;;;5056887;28;20063;-90
2022/11/07 02:33:00;;;;;;;4.15;1.63;;;11.00;99.90;;;;;;5056672;28;20050;-89
2022/11/07 02:36:18;;;;;;;6.45;2.40;;;11.10;99.90;;;;;;5074716;28;20044;-90
2022/11/07 02:39:33;;;;;;;6.65;2.40;;;10.80;99.90;;;;;;5056585;28;20052;-90
2022/11/07 02:46:20;;;;;;;8.10;1.90;;;10.80;99.90;;;;;;5072163;28;20041;-90
2022/11/07 02:49:28;;;;;;;3.97;1.75;;;10.90;99.90;;;;;;5056233;28;20055;-89
2022/11/07 02:52:51;;;;;;;3.97;1.55;;;10.90;99.90;;;;;;5069159;28;20044;-90
2022/11/07 02:55:56;;;;;;;3.85;1.77;;;10.90;99.90;;;;;;5002454;28;20513;-87
2022/11/07 02:59:33;;;;;;;;;;;;;;;;;;;;;
2022/11/07 03:02:58;;;;;;;;;;;;;;;;;;;;;
2022/11/07 03:06:08;;;;;;;5.03;1.20;;;10.80;99.90;;;;;;5052140;28;20442;-90
2022/11/07 03:09:27;;;;;;;8.15;1.92;;;10.80;99.90;;;;;;5055686;28;20162;-89
2022/11/07 03:12:45;;;;;;;5.00;1.27;;;10.80;99.90;;;;;;5048097;28;20091;-90
2022/11/07 03:16:10;;;;;;;;;;;;;;;;;;;;;
2022/11/07 03:19:42;;;;;;;;;;;;;;;;;;;;;
2022/11/07 03:23:07;;;;;;;5.38;1.50;;;10.80;99.90;;;;;;5069587;28;20051;-89
2022/11/07 03:26:44;;;;;;;;;;;;;;;;;;;;;
2022/11/07 03:30:11;;;;;;;5.95;1.30;;;10.90;99.90;;;;;;5068672;28;20076;-89
2022/11/07 03:33:36;;;;;;;7.70;1.90;;;11.70;99.90;;;;;;5074473;28;20080;-90
2022/11/07 03:37:00;;;;;;;;;;;;;;;;;;;;;
2022/11/07 03:40:12;;;;;;;7.75;1.60;;;10.90;99.90;;;;;;5008788;28;20088;-89
2022/11/07 03:42:45;;;;;;;;;;;10.90;99.90;;;;;;5034384;28;20507;-86
2022/11/07 03:45:58;;;;;;;;;;;;;;;;;;;;;
2022/11/07 03:49:40;;;;;;;7.75;2.00;;;10.80;99.90;;;;;;5071107;28;20036;-89
2022/11/07 03:52:43;;;;;;;7.55;1.20;;;10.70;99.90;;;;;;5054460;28;20506;-89
2022/11/07 03:56:26;;;;;;;4.38;1.40;;;10.70;99.90;;;;;;5068041;28;20032;-90
2022/11/07 03:59:46;;;;;;;6.75;1.77;;;10.70;99.90;;;;;;5054233;28;20411;-89
2022/11/07 04:03:10;;;;;;;;;;;;;;;;;;;;;
2022/11/07 04:06:38;;;;;;;6.20;1.30;;;10.70;99.90;;;;;;5056940;28;20061;-89
2022/11/07 04:09:46;;;;;;;;;;;;;;;;;;;;;
2022/11/07 04:19:53;;;;;;;5.60;1.60;;;10.70;99.90;;;;;;5068449;28;20048;-88
2022/11/07 04:23:36;;;;;;;;;;;;;;;;;;;;;
2022/11/07 04:30:52;;;;;;;;;;;;;;;;;;;;;
2022/11/07 04:33:33;;;;;;;9.30;1.33;;;10.60;99.90;;;;;;5047362;28;20464;-89
2022/11/07 04:36:42;;;;;;;;;;;;;;;;;;;;;
2022/11/07 04:40:13;;;;;;;;;;;;;;;;;;;;;
2022/11/07 04:43:10;;;;;;;4.20;1.35;;;11.00;99.90;;;;;;5037471;28;20068;-89
2022/11/07 04:46:44;;;;;;;3.20;1.30;;;10.50;99.90;;;;;;5061493;28;20449;-89
2022/11/07 04:50:14;;;;;;;;;;;;;;;;;;;;;
2022/11/07 04:53:45;;;;;;;6.72;1.27;;;10.40;99.90;;;;;;5055713;28;20041;-89
2022/11/07 04:57:09;;;;;;;8.07;1.20;;;10.50;99.90;;;;;;5031161;28;20051;-89
2022/11/07 05:00:20;;;;;;;11.73;1.30;;;10.50;99.90;;;;;;5045548;28;20048;-89
2022/11/07 05:03:32;;;;;;;9.07;0.98;;;10.50;99.90;;;;;;5047432;28;20103;-89
2022/11/07 05:06:30;;;;;;;5.60;1.48;;;10.50;99.90;;;;;;5026574;28;20044;-90
2022/11/07 05:09:55;;;;;;;6.07;1.60;;;10.60;99.90;;;;;;5050851;28;20045;-89
2022/11/07 05:13:00;;;;;;;4.28;1.10;;;10.60;99.90;;;;;;5056331;28;20129;-89
2022/11/07 05:16:24;;;;;;;5.82;1.60;;;10.60;99.90;;;;;;5055702;28;20051;-89
2022/11/07 05:19:38;;;;;;;7.00;1.77;;;10.60;99.90;;;;;;5052938;28;20053;-89
2022/11/07 05:26:30;;;;;;;7.60;1.73;;;10.60;99.90;;;;;;5053345;28;20048;-90
2022/11/07 05:29:50;;;;;;;5.60;1.13;;;10.60;99.90;;;;;;5056255;28;20049;-90
2022/11/07 05:32:51;;;;;;;6.53;1.48;;;11.50;99.90;;;;;;5056097;28;20045;-87
2022/11/07 05:36:00;;;;;;;9.40;2.45;;;11.00;99.90;;;;;;5050675;28;20551;-90
2022/11/07 05:39:38;;;;;;;;;;;;;;;;;;;;;
2022/11/07 05:43:11;;;;;;;;;;;;;;;;;;;;;
2022/11/07 05:46:22;;;;;;;4.00;1.25;;;10.50;99.90;;;;;;5056284;28;20059;-90
2022/11/07 05:49:08;;;;;;;7.90;1.90;;;10.40;99.90;;;;;;5042796;28;20162;-90
2022/11/07 05:52:44;;;;;;;;;;;;;;;;;;;;;
2022/11/07 06:06:26;;;;;;;4.53;1.42;;;10.50;99.90;;;;;;5080458;28;20045;-89
2022/11/07 06:09:42;;;;;;;8.88;2.13;;;10.50;99.90;;;;;;5074223;28;20045;-88
2022/11/07 06:12:58;;;;;;;;;;;;;;;;;;;;;
2022/11/07 06:15:39;;;;;;;11.52;2.58;;;10.40;99.90;;;;;;5038290;28;20068;-89
2022/11/07 06:18:48;;;;;;;3.17;1.42;;;10.50;99.90;;;;;;5080780;28;20052;-89
2022/11/07 06:22:08;;;;;;;;;;;;;;;;;;;;;
2022/11/07 06:25:40;;;;;;;9.80;2.08;;;10.50;99.90;;;;;;5054110;28;20056;-90
2022/11/07 06:29:09;;;;;;;3.90;2.17;;;10.40;99.90;;;;;;5060731;28;20057;-89
2022/11/07 06:32:38;;;;;;;;;;;;;;;;;;;;;
2022/11/07 06:35:26;;;;;;;5.55;2.33;;;10.40;99.90;;;;;;5053408;28;20423;-92
2022/11/07 06:39:06;;;;;;;;;;;;;;;;;;;;;
2022/11/07 06:41:59;;;;;;;9.73;2.15;;;10.40;99.90;;;;;;5022340;28;20065;-89
2022/11/07 06:44:54;;;;;;;11.10;1.88;;;10.40;99.90;;;;;;5045152;28;20411;-90
2022/11/07 06:48:05;;;;;;;5.70;1.60;;;10.40;99.90;;;;;;5052989;28;20041;-90
2022/11/07 06:51:11;;;;;;;;;;;;;;;;;;;;;
2022/11/07 06:54:13;;;;;;;8.80;1.80;;;10.40;99.90;;;;;;5038212;28;20118;-90
2022/11/07 06:57:07;;;;;;;6.65;2.35;;;10.40;99.90;;;;;;5038233;28;20057;-90
2022/11/07 07:00:12;;;;;;;4.80;1.65;;;10.40;99.90;;;;;;5044622;28;20071;-89
2022/11/07 07:02:54;;;;;;;5.70;1.40;;;10.40;99.90;;;;;;5053909;28;20045;-89
2022/11/07 07:06:14;;;;;;;;;;;;;;;;;;;;;
2022/11/07 07:09:16;;;;;;;7.10;1.77;;;10.40;99.90;;;;;;4995033;28;20061;-89
2022/11/07 07:16:14;;;;;;;;;;;;;;;;;;;;;
2022/11/07 07:19:20;;;;;;;6.22;1.45;;;11.30;99.90;;;;;;5011431;28;20057;-91
2022/11/07 07:22:25;;;;;;;6.82;1.50;;;10.50;99.90;;;;;;4990703;28;20061;-87
2022/11/07 07:25:21;;;;;;;8.32;1.92;;;10.50;99.90;;;;;;5009692;28;20050;-89
2022/11/07 07:28:07;;;;;;;6.55;1.65;;;10.50;99.90;;;;;;5011084;28;20452;-91
2022/11/07 07:30:38;;;;;;;4.97;1.35;;;10.60;99.90;;;;;;4994838;28;20045;-88
2022/11/07 07:33:07;;;;;;;7.60;1.30;;;10.60;99.90;;;;;;5011097;28;20077;-88
2022/11/07 07:35:37;;;;;;;6.97;1.58;;;10.70;99.90;;;;;;4995740;28;20112;-90
2022/11/07 07:38:04;;;;;;;5.65;1.67;;;10.70;99.90;;;;;;4994378;28;20058;-90
2022/11/07 07:40:59;;;;;;;4.13;1.42;;;10.70;99.90;;;;;;4979270;28;20053;-89
2022/11/07 07:43:54;;;;;;;5.43;2.35;;;10.70;99.90;;;;;;5003674;28;20073;-89
2022/11/07 07:47:01;;;;;;;7.72;2.67;;;10.70;99.90;;;;;;5047593;28;20143;-87
2022/11/07 07:50:08;;;;;;;6.43;2.28;;;10.70;99.90;;;;;;5043423;28;20434;-89
2022/11/07 07:53:09;;;;;;;7.15;2.28;;;10.80;99.90;;;;;;5043586;28;20041;-88
2022/11/07 07:56:05;;;;;;;9.65;2.50;;;10.80;99.90;;;;;;5046289;28;20071;-89
2022/11/07 07:59:15;;;;;;;8.18;3.25;;;10.80;99.90;;;;;;5052930;28;20048;-87
2022/11/07 08:02:19;;;;;;;8.37;2.73;;;10.80;99.90;;;;;;5052636;28;20037;-88
2022/11/07 08:05:11;;;;;;;6.07;2.40;;;10.80;99.90;;;;;;5046374;28;20044;-86
2022/11/07 08:08:25;;;;;;;10.32;2.92;;;10.80;99.90;;;;;;5046043;28;20047;-89
2022/11/07 08:11:29;;;;;;;8.05;3.20;;;10.90;99.90;;;;;;5044626;28;20048;-86
2022/11/07 08:14:40;;;;;;;;;;;;;;;;;;;;;
2022/11/07 08:17:55;;;;;;;;;;;;;;;;;;;;;
2022/11/07 08:20:51;;;;;;;9.93;2.42;;;10.70;99.90;;;;;;5004901;28;20046;-87
2022/11/07 08:24:02;;;;;;;;;;;;;;;;;;;;;
2022/11/07 08:27:29;;;;;;;9.50;3.13;;;11.00;99.90;;;;;;5018567;28;20052;-89
2022/11/07 08:30:35;;;;;;;7.25;2.97;;;11.00;99.90;;;;;;5030048;28;20092;-89
2022/11/07 08:33:37;;;;;;;8.77;3.67;;;11.70;99.90;;;;;;5031406;28;20056;-89
2022/11/07 08:36:39;;;;;;;8.32;3.42;;;11.10;99.90;;;;;;5014309;28;20069;-89
2022/11/07 08:39:35;;;;;;;6.82;2.78;;;11.10;99.90;;;;;;5030935;28;20049;-89
2022/11/07 08:42:48;;;;;;;;;;;;;;;;;;;;;
2022/11/07 08:46:02;;;;;;;;;;;;;;;;;;;;;
2022/11/07 08:48:50;;;;;;;10.93;2.85;;;11.10;99.90;;;;;;5030385;28;20393;-89
2022/11/07 08:51:49;;;;;;;;;;;;;;;;;;;;;
2022/11/07 08:55:04;;;;;;;;;;;;;;;;;;;;;
2022/11/07 08:58:19;;;;;;;9.93;3.45;;;11.20;99.90;;;;;;5010735;28;20132;-88
2022/11/07 09:01:23;;;;;;;6.80;3.65;;;11.10;99.90;;;;;;5023096;28;20113;-90
2022/11/07 09:04:08;;;;;;;11.07;3.22;;;11.30;99.90;;;;;;5013911;28;20053;-89
2022/11/07 09:06:54;;;;;;;8.98;2.70;;;11.20;99.90;;;;;;5030587;28;20060;-89
2022/11/07 09:10:03;;;;;;;;;;;;;;;;;;;;;
2022/11/07 09:13:12;;;;;;;;;;;;;;;;;;;;;
2022/11/07 09:15:55;;;;;;;6.32;2.70;;;11.20;99.90;;;;;;5030236;28;20045;-87
2022/11/07 09:18:42;;;;;;;8.25;3.00;;;11.30;99.90;;;;;;5031199;28;20484;-88
2022/11/07 09:21:41;;;;;;;13.15;4.70;;;11.30;99.90;;;;;;5032890;28;20415;-88
2022/11/07 09:24:42;;;;;;;6.20;2.78;;;11.20;99.90;;;;;;5024196;28;20545;-88
2022/11/07 09:27:34;;;;;;;9.32;3.67;;;11.40;99.90;;;;;;5010361;28;20471;-88
2022/11/07 09:30:33;;;;;;;8.38;2.55;;;11.40;99.90;;;;;;5008721;28;20128;-88
2022/11/07 09:33:38;;;;;;;12.15;3.63;;;11.40;99.90;;;;;;5008925;28;20061;-88
2022/11/07 09:36:36;;;;;;;7.30;2.70;;;12.40;99.90;;;;;;4993795;28;20104;-88
2022/11/07 09:39:41;;;;;;;8.35;2.75;;;11.60;99.90;;;;;;5008996;28;20045;-88
2022/11/07 09:43:05;;;;;;;10.20;3.20;;;11.60;99.90;;;;;;4992030;28;20513;-89
2022/11/07 09:46:18;;;;;;;8.65;2.15;;;11.70;99.90;;;;;;4994220;28;20123;-89
2022/11/07 09:49:32;;;;;;;;;;;;;;;;;;;;;
2022/11/07 09:52:38;;;;;;;10.38;3.03;;;12.20;99.90;;;;;;5004903;28;20129;-84
2022/11/07 09:55:50;;;;;;;11.50;2.53;;;11.90;99.90;;;;;;5010905;28;20046;-90
2022/11/07 09:59:16;;;;;;;;;;;;;;;;;;;;;
2022/11/07 10:02:47;;;;;;;5.55;2.22;;;11.90;99.90;;;;;;5037570;28;20441;-90
2022/11/07 10:05:51;;;;;;;8.15;2.17;;;12.00;99.90;;;;;;5035588;28;20426;-89
2022/11/07 10:09:22;;;;;;;;;;;;;;;;;;;;;
2022/11/07 10:12:48;;;;;;;7.20;2.28;;;12.00;99.90;;;;;;5054539;28;20045;-89
2022/11/07 10:16:07;;;;;;;;;;;;;;;;;;;;;
2022/11/07 10:19:38;;;;;;;11.43;2.47;;;12.20;99.90;;;;;;5071526;28;20063;-86
2022/11/07 10:22:39;;;;;;;3.72;1.25;;;12.10;99.90;;;;;;5054190;28;20110;-88
2022/11/07 10:25:40;;;;;;;5.70;2.13;;;12.10;99.90;;;;;;5051186;28;20083;-86
2022/11/07 10:28:50;;;;;;;12.57;2.20;;;12.10;99.90;;;;;;5053332;28;20051;-89
2022/11/07 10:32:12;;;;;;;7.15;1.92;;;12.20;99.90;;;;;;5054844;28;20045;-86
2022/11/07 10:35:30;;;;;;;9.80;2.08;;;12.20;99.90;;;;;;5055301;28;20045;-86
2022/11/07 10:38:49;;;;;;;3.75;1.90;;;12.20;99.90;;;;;;5053110;28;20040;-85
2022/11/07 10:41:39;;;;;;;4.88;1.58;;;12.30;99.90;;;;;;5013169;28;20047;-86
2022/11/07 10:44:48;;;;;;;5.35;1.88;;;12.40;99.90;;;;;;5051178;28;20083;-89
2022/11/07 10:47:46;;;;;;;;;;;;;;;;;;;;;
2022/11/07 10:50:51;;;;;;;6.25;1.92;;;12.50;99.90;;;;;;4988083;28;20111;-86
2022/11/07 10:53:58;;;;;;;8.60;1.77;;;12.50;99.90;;;;;;5003730;28;20056;-91
2022/11/07 11:22:44;;;;;;;8.88;1.65;;;12.70;99.90;;;;;;5050223;28;20095;-86
2022/11/07 11:25:25;;;;;;;9.93;1.95;;;12.70;99.90;;;;;;5028478;28;20384;-86
2022/11/07 11:28:20;;;;;;;7.30;1.65;;;12.70;99.90;;;;;;5012539;28;20453;-86
2022/11/07 11:31:19;;;;;;;6.20;1.58;;;12.60;99.90;;;;;;5020755;28;20041;-86
2022/11/07 11:34:20;;;;;;;11.73;2.03;;;12.60;99.90;;;;;;5029849;28;20060;-87
2022/11/07 11:37:08;;;;;;;8.32;1.83;;;12.70;99.90;;;;;;5022134;28;20056;-88
2022/11/07 11:39:41;;;;;;;6.68;1.65;;;12.70;99.90;;;;;;5014965;28;20056;-88
2022/11/07 11:50:11;;;;;;;8.80;2.33;;;12.80;99.90;;;;;;5030038;28;20052;-89
2022/11/07 11:53:17;;;;;;;8.20;1.73;;;12.90;99.90;;;;;;4882927;29;20053;-89
2022/11/07 11:56:47;;;;;;;6.95;2.20;;;12.90;99.90;;;;;;4898245;29;20057;-91
2022/11/07 12:03:48;;;;;;;8.98;2.17;;;13.00;99.90;;;;;;4855520;29;20049;-92
2022/11/07 12:07:10;;;;;;;;;;;;;;;;;;;;;
2022/11/07 12:10:17;;;;;;;4.43;1.50;;;13.10;99.90;;;;;;4844937;29;20580;-91
2022/11/07 12:13:13;;;;;;;8.88;1.80;;;13.10;99.90;;;;;;4854519;29;20170;-92
2022/11/07 12:16:22;;;;;;;9.00;1.92;;;13.20;99.90;;;;;;4831322;29;20053;-90
2022/11/07 12:19:24;;;;;;;7.38;1.40;;;13.30;99.90;;;;;;4852075;29;20425;-93
2022/11/07 12:22:42;;;;;;;5.80;1.40;;;13.30;99.90;;;;;;4841482;29;20064;-93
2022/11/07 12:26:02;;;;;;;9.20;1.90;;;13.40;99.90;;;;;;4859598;29;20064;-89
2022/11/07 12:29:12;;;;;;;4.95;1.50;;;13.50;99.90;;;;;;4874862;29;20491;-93
2022/11/07 12:32:54;;;;;;;8.98;1.77;;;13.50;99.90;;;;;;4937503;29;20107;-92
2022/11/07 12:36:20;;;;;;;8.80;2.35;;;13.60;99.90;;;;;;4928839;29;20103;-90
2022/11/07 12:39:33;;;;;;;8.52;1.70;;;13.60;99.90;;;;;;4928422;28;20059;-90
2022/11/07 12:42:55;;;;;;;5.15;1.75;;;13.70;99.90;;;;;;5059991;28;20071;-89
2022/11/07 12:45:34;;;;;;;8.73;1.83;;;14.00;99.90;;;;;;4984930;28;20049;-90
2022/11/07 12:48:46;;;;;;;5.90;1.50;;;14.00;99.90;;;;;;4990170;28;20035;-89
2022/11/07 12:51:44;;;;;;;5.78;1.63;;;14.20;99.90;;;;;;5007644;28;20050;-88
2022/11/07 12:54:53;;;;;;;11.85;1.65;;;14.20;99.90;;;;;;5004417;28;20054;-89
2022/11/07 13:02:04;;;;;;;5.25;1.80;;;14.20;99.90;;;;;;5015087;28;20053;-88
2022/11/07 13:05:38;;;;;;;;;;;;;;;;;;;;;
2022/11/07 13:08:54;;;;;;;8.07;1.23;;;14.30;99.90;;;;;;4995279;28;20046;-87
2022/11/07 13:11:52;;;;;;;9.52;1.50;;;14.20;99.90;;;;;;4999047;28;20460;-88
2022/11/07 13:14:58;;;;;;;;;;;;;;;;;;;;;
2022/11/07 13:17:47;;;;;;;4.75;1.20;;;14.10;99.90;;;;;;4995003;28;20144;-92
2022/11/07 13:20:42;;;;;;;2.08;1.08;;;14.10;99.90;;;;;;4998346;28;20540;-90
2022/11/07 13:23:37;;;;;;;5.10;1.13;;;14.10;99.90;;;;;;5051060;28;20056;-91
2022/11/07 13:26:54;;;;;;;5.45;1.13;;;14.00;99.90;;;;;;5038960;28;20072;-94
2022/11/07 13:29:56;;;;;;;5.03;1.00;;;14.00;99.90;;;;;;5021312;28;20052;-91
2022/11/07 13:32:48;;;;;;;6.10;0.93;;;13.90;99.90;;;;;;5031958;28;20040;-90
2022/11/07 13:35:41;;;;;;;3.63;1.00;;;13.90;99.90;;;;;;4977936;28;20058;-88
2022/11/07 13:38:54;;;;;;;3.50;0.90;;;13.80;99.90;;;;;;4951052;29;20107;-91
2022/11/07 13:41:52;;;;;;;8.50;0.90;;;13.80;99.90;;;;;;4934925;29;20049;-85
2022/11/07 13:45:07;;;;;;;4.00;0.95;;;13.90;99.90;;;;;;4931913;29;20094;-94
2022/11/07 13:48:03;;;;;;;;;;;;;;;;;;;;;
2022/11/07 13:51:36;;;;;;;5.93;0.98;;;13.80;99.90;;;;;;4938876;29;20052;-91
2022/11/07 13:54:43;;;;;;;8.18;0.90;;;13.70;99.90;;;;;;4863644;29;20057;-91
2022/11/07 14:01:20;;;;;;;2.70;1.15;;;13.50;99.90;;;;;;4899087;29;20184;-91
2022/11/07 14:04:25;;;;;;;2.00;1.00;;;13.80;99.90;;;;;;4922655;29;20066;-89
2022/11/07 14:07:22;;;;;;;5.40;1.13;;;13.80;99.90;;;;;;4889269;29;20049;-94
2022/11/07 14:10:43;;;;;;;2.88;1.00;;;13.60;99.90;;;;;;4893943;29;20056;-92
2022/11/07 14:14:03;;;;;;;3.15;1.13;;;13.10;99.90;;;;;;4839656;29;20086;-93
2022/11/07 14:17:17;;;;;;;5.03;1.17;;;13.70;99.90;;;;;;4861240;29;20050;-93
2022/11/07 14:20:52;;;;;;;9.20;1.63;;;13.60;99.90;;;;;;4861109;29;20164;-90
2022/11/07 14:24:10;;;;;;;6.97;1.42;;;13.40;99.90;;;;;;4881423;29;20053;-94
2022/11/07 14:27:26;;;;;;;7.18;1.50;;;13.60;99.90;;;;;;4884052;29;20064;-91
2022/11/07 14:30:23;;;;;;;9.25;1.30;;;13.60;99.90;;;;;;4895615;29;20059;-93
2022/11/07 14:33:18;;;;;;;8.07;1.20;;;13.60;99.90;;;;;;4904221;29;20071;-91
2022/11/07 14:36:26;;;;;;;;;;;;;;;;;;;;;
2022/11/07 14:39:17;;;;;;;5.00;1.30;;;13.50;99.90;;;;;;4916486;29;20048;-95
2022/11/07 14:42:10;;;;;;;8.02;1.30;;;13.50;99.90;;;;;;4917611;29;20051;-89
2022/11/07 14:45:41;;;;;;;3.22;1.05;;;13.50;99.90;;;;;;4917320;29;20070;-92
2022/11/07 14:48:33;;;;;;;6.43;1.67;;;13.40;99.90;;;;;;4912269;29;20048;-92
2022/11/07 14:52:08;;;;;;;4.72;1.10;;;13.50;99.90;;;;;;4944918;28;20098;-93
2022/11/07 14:55:19;;;;;;;7.65;1.50;;;13.30;99.90;;;;;;4944797;29;20137;-94
2022/11/07 14:58:29;;;;;;;4.70;1.42;;;13.50;99.90;;;;;;4960325;28;20585;-92
2022/11/07 15:01:27;;;;;;;7.47;1.45;;;13.50;99.90;;;;;;4931665;28;20117;-93
2022/11/07 15:05:05;;;;;;;3.30;1.35;;;13.40;99.90;;;;;;4931017;29;20106;-91
2022/11/07 15:08:05;;;;;;;9.77;1.27;;;13.30;99.90;;;;;;4947073;29;20055;-90
2022/11/07 15:11:19;;;;;;;2.88;1.20;;;13.40;99.90;;;;;;4940656;29;20398;-91
2022/11/07 15:13:55;;;;;;;5.97;1.23;;;13.30;99.90;;;;;;4931144;29;20055;-89
2022/11/07 15:16:23;;;;;;;9.40;1.98;;;13.30;99.90;;;;;;4937364;29;20086;-92
2022/11/07 15:19:04;;;;;;;6.03;1.27;;;13.30;99.90;;;;;;4936823;29;20054;-91
2022/11/07 15:21:41;;;;;;;5.43;1.50;;;13.80;99.90;;;;;;4939544;29;20043;-91
2022/11/07 15:24:41;;;;;;;3.75;1.45;;;13.30;99.90;;;;;;4950580;28;20054;-92
2022/11/07 15:27:25;;;;;;;4.45;1.85;;;13.20;99.90;;;;;;4944739;28;20071;-91
2022/11/07 15:30:18;;;;;;;;;;;;;;;;;;;;;
2022/11/07 15:33:18;;;;;;;8.95;1.80;;;13.20;99.90;;;;;;5057757;28;20056;-91
2022/11/07 15:35:53;;;;;;;10.15;2.00;;;13.20;99.90;;;;;;5069534;28;20040;-92
2022/11/07 15:38:28;;;;;;;6.68;1.70;;;13.20;99.90;;;;;;5038082;28;20044;-88
2022/11/07 15:41:13;;;;;;;8.68;1.67;;;13.20;99.90;;;;;;5075240;28;20045;-93
2022/11/07 15:43:46;;;;;;;6.90;1.60;;;13.20;99.90;;;;;;5074676;28;20044;-92
2022/11/07 15:46:27;;;;;;;5.80;1.40;;;13.20;99.90;;;;;;5071444;28;20037;-92
2022/11/07 15:48:58;;;;;;;5.50;1.75;;;13.10;99.90;;;;;;5055257;28;20070;-91
2022/11/07 15:51:31;;;;;;;5.07;2.03;;;13.10;99.90;;;;;;5053258;28;20119;-89
2022/11/07 15:54:03;;;;;;;6.10;2.00;;;13.10;99.90;;;;;;5072634;28;20098;-92
2022/11/07 15:56:38;;;;;;;8.93;1.70;;;13.00;99.90;;;;;;5046896;28;20120;-92
2022/11/07 15:59:25;;;;;;;10.93;2.25;;;13.10;99.90;;;;;;5076779;28;20399;-93
2022/11/07 16:02:48;;;;;;;11.88;2.17;;;13.10;99.90;;;;;;5052731;28;20056;-89
2022/11/07 16:05:52;;;;;;;8.00;1.67;;;13.10;99.90;;;;;;5036501;28;20051;-93
2022/11/07 16:11:36;;;;;;;7.10;2.00;;;13.00;99.90;;;;;;5107799;23;20067;-89
2022/11/07 16:19:12;;;;;;;7.90;1.83;;;12.90;99.90;;;;;;5062939;28;20043;-91
2022/11/07 16:29:48;;;;;;;;;;;;;;;;;;;;;
2022/11/07 16:32:50;;;;;;;7.15;2.15;;;12.40;99.90;;;;;;5008407;28;20045;-87
2022/11/07 16:40:21;;;;;;;6.72;1.98;;;12.50;99.90;;;;;;5038494;23;20126;-89
2022/11/07 16:44:08;;;;;;;6.25;2.00;;;12.70;99.90;;;;;;4998391;28;20052;-91
2022/11/07 16:47:42;;;;;;;;;;;;;;;;;;;;;
2022/11/07 16:51:17;;;;;;;;;;;;;;;;;;;;;
2022/11/07 16:54:38;;;;;;;;;;;;;;;;;;;;;
2022/11/07 16:58:24;;;;;;;7.50;2.30;;;12.60;99.90;;;;;;4991042;28;20484;-89
2022/11/07 17:05:43;;;;;;;7.55;2.03;;;12.60;99.90;;;;;;4994961;28;20551;-92
2022/11/07 17:09:15;;;;;;;9.05;1.90;;;12.20;99.90;;;;;;4989452;28;20066;-90
2022/11/07 17:13:23;;;;;;;;;;;;;;;;;;;;;
2022/11/07 17:20:12;;;;;;;6.78;1.98;;;12.60;99.90;;;;;;4900303;29;20427;-89
2022/11/07 17:23:47;;;;;;;;;;;;;;;;;;;;;
2022/11/07 17:27:30;;;;;;;5.15;1.58;;;12.60;99.90;;;;;;5015268;28;20053;-88
2022/11/07 17:31:07;;;;;;;6.88;1.75;;;12.60;99.90;;;;;;4914216;29;20531;-88
2022/11/07 17:34:22;;;;;;;12.13;2.10;;;12.50;99.90;;;;;;4917451;29;20052;-87
2022/11/07 17:37:25;;;;;;;3.75;1.90;;;12.50;99.90;;;;;;4912437;29;20052;-87
2022/11/07 17:40:28;;;;;;;6.25;2.05;;;12.00;99.90;;;;;;4900479;29;20048;-88
2022/11/07 17:43:44;;;;;;;7.53;1.90;;;12.50;99.90;;;;;;4913254;29;20047;-87
2022/11/07 17:47:20;;;;;;;3.67;1.50;;;12.60;99.90;;;;;;4914558;29;20040;-88
2022/11/07 17:50:40;;;;;;;4.97;1.80;;;12.80;99.90;;;;;;4906384;29;20044;-89
2022/11/07 17:53:45;;;;;;;8.38;2.30;;;12.50;99.90;;;;;;4914034;29;20059;-88
2022/11/07 17:57:12;;;;;;;;;;;;;;;;;;;;;
2022/11/07 18:01:08;;;;;;;7.32;1.98;;;12.50;99.90;;;;;;4950510;28;20046;-89
2022/11/07 18:04:14;;;;;;;5.03;1.65;;;12.50;99.90;;;;;;4916516;29;20056;-89
2022/11/07 18:07:14;;;;;;;8.27;2.08;;;12.50;99.90;;;;;;4916827;29;20123;-88
2022/11/07 18:21:12;;;;;;;;;;;;;;;;;;;;;
2022/11/07 18:24:27;;;;;;;;;;;12.60;99.90;;;;;;5009642;23;20089;-88
2022/11/07 18:26:59;;;;;;;8.02;2.78;;;12.50;99.90;;;;;;4997686;28;19930;-88
2022/11/07 18:29:29;;;;;;;6.78;1.70;;;12.50;99.90;;;;;;4985600;28;20180;-89
2022/11/07 18:31:59;;;;;;;3.67;1.58;;;12.50;99.90;;;;;;5014678;28;20151;-88
2022/11/07 18:37:38;;;;;;;6.07;1.50;;;12.50;99.90;;;;;;5064233;22;20054;-88
2022/11/07 18:40:21;;;;;;;;;;;;;;;;;;;;;
2022/11/07 18:43:16;;;;;;;9.70;2.85;;;12.50;99.90;;;;;;4976934;28;20089;-89
2022/11/07 18:45:47;;;;;;;10.20;2.03;;;12.50;99.90;;;;;;4976252;28;20519;-90
2022/11/07 18:48:18;;;;;;;7.85;2.45;;;12.50;99.90;;;;;;4970745;28;20050;-90
2022/11/07 18:51:00;;;;;;;;;;;;;;;;;;;;;
2022/11/07 18:53:32;;;;;;;3.00;1.48;;;12.50;99.90;;;;;;4981781;28;20615;-89
2022/11/07 18:56:06;;;;;;;5.80;1.60;;;12.50;99.90;;;;;;4985519;28;20044;-89
2022/11/07 18:58:44;;;;;;;8.13;1.90;;;12.10;99.90;;;;;;4980092;28;20038;-87
2022/11/07 19:01:23;;;;;;;4.50;2.03;;;12.50;99.90;;;;;;4951935;28;20793;-88
2022/11/07 19:03:58;;;;;;;4.18;1.90;;;12.50;99.90;;;;;;4978012;28;20058;-89
2022/11/07 19:06:34;;;;;;;5.15;1.77;;;12.50;99.90;;;;;;4978301;28;20141;-90
2022/11/07 19:09:09;;;;;;;6.63;2.13;;;12.50;99.90;;;;;;4995676;28;20042;-90
2022/11/07 19:11:46;;;;;;;7.15;3.40;;;12.50;99.90;;;;;;4972635;28;20051;-90
2022/11/07 19:14:37;;;;;;;9.48;1.67;;;12.80;99.90;;;;;;4997263;28;20026;-91
2022/11/07 19:17:11;;;;;;;4.97;1.58;;;12.50;99.90;;;;;;4998931;28;20041;-91
2022/11/07 19:19:41;;;;;;;6.95;1.70;;;12.50;99.90;;;;;;4999039;28;20026;-88
2022/11/07 19:22:11;;;;;;;6.07;1.90;;;12.50;99.90;;;;;;4995368;28;20057;-91
2022/11/07 19:24:49;;;;;;;7.32;2.58;;;12.50;99.90;;;;;;4997584;28;20065;-89